Time;durP1;ratioP1;P1;durP2;ratioP2;P2;SDS_P1;SDS_P2;PMS_P1;PMS_P2;Temp;Humidity;BMP_temperature;BMP_pressure;BME280_temperature;BME280_humidity;BME280_pressure;Samples;Min_cycle;Max_cycle;Signal;HPM_P1;HPM_P2
2022/08/01 00:01:57;;;;;;;0.98;0.90;;;;;;;;;;5053863;28;20045;-76
2022/08/01 00:04:23;;;;;;;2.53;1.20;;;;;;;;;;5053750;28;20044;-76
2022/08/01 00:06:50;;;;;;;2.65;0.95;;;;;;;;;;5053777;28;20077;-76
2022/08/01 00:09:16;;;;;;;2.55;0.82;;;;;;;;;;5053345;28;20085;-75
2022/08/01 00:11:49;;;;;;;2.55;1.30;;;;;;;;;;5053679;28;20048;-75
2022/08/01 00:14:25;;;;;;;3.50;1.17;;;;;;;;;;5053283;28;20053;-75
2022/08/01 00:16:58;;;;;;;2.10;0.90;;;;;;;;;;5053359;28;20041;-75
2022/08/01 00:19:32;;;;;;;2.22;1.20;;;;;;;;;;5051676;28;20102;-75
2022/08/01 00:21:58;;;;;;;2.77;1.30;;;;;;;;;;5053117;28;20542;-76
2022/08/01 00:24:25;;;;;;;1.73;0.90;;;;;;;;;;5053155;28;20084;-76
2022/08/01 00:26:51;;;;;;;1.67;1.00;;;;;;;;;;5053303;28;20080;-76
2022/08/01 00:29:18;;;;;;;1.30;0.90;;;;;;;;;;5053631;28;20088;-76
2022/08/01 00:32:04;;;;;;;3.22;0.98;;;;;;;;;;5053187;28;20048;-76
2022/08/01 00:34:31;;;;;;;1.33;0.70;;;;;;;;;;5053253;28;20080;-76
2022/08/01 00:36:58;;;;;;;1.38;0.70;;;;;;;;;;5053090;28;20069;-76
2022/08/01 00:39:24;;;;;;;1.10;0.75;;;;;;;;;;5052981;28;20127;-77
2022/08/01 00:41:50;;;;;;;1.35;0.80;;;;;;;;;;5052788;28;20084;-76
2022/08/01 00:44:25;;;;;;;1.00;0.73;;;;;;;;;;5053035;28;20042;-77
2022/08/01 00:46:51;;;;;;;0.73;0.70;;;;;;;;;;5052547;28;20080;-77
2022/08/01 00:49:18;;;;;;;0.93;0.73;;;;;;;;;;5052677;28;20049;-77
2022/08/01 00:51:44;;;;;;;2.17;0.88;;;;;;;;;;5052866;28;20072;-77
2022/08/01 00:54:11;;;;;;;0.95;0.93;;;;;;;;;;5052489;28;20084;-77
2022/08/01 00:56:42;;;;;;;0.80;0.70;;;;;;;;;;5052563;28;20459;-77
2022/08/01 00:59:08;;;;;;;3.70;0.93;;;;;;;;;;5052348;28;20049;-78
2022/08/01 01:01:36;;;;;;;4.15;0.95;;;;;;;;;;5052673;28;20052;-77
2022/08/01 01:04:05;;;;;;;0.73;0.70;;;;;;;;;;5052581;28;20102;-77
2022/08/01 01:06:34;;;;;;;1.13;0.50;;;;;;;;;;5052375;28;20156;-77
2022/08/01 01:09:06;;;;;;;1.90;0.80;;;;;;;;;;5052631;28;20080;-77
2022/08/01 01:11:37;;;;;;;1.30;0.70;;;;;;;;;;5052167;28;20459;-77
2022/08/01 01:14:10;;;;;;;1.58;0.70;;;;;;;;;;5052269;28;20501;-77
2022/08/01 01:16:40;;;;;;;1.05;0.77;;;;;;;;;;5051993;28;20091;-77
2022/08/01 01:19:10;;;;;;;0.95;0.60;;;;;;;;;;5052112;28;20057;-77
2022/08/01 01:21:42;;;;;;;1.60;0.60;;;;;;;;;;5052467;28;20087;-77
2022/08/01 01:24:28;;;;;;;1.52;0.73;;;;;;;;;;5052285;28;20049;-77
2022/08/01 01:27:14;;;;;;;3.13;0.85;;;;;;;;;;5052450;28;20098;-78
2022/08/01 01:29:55;;;;;;;0.60;0.43;;;;;;;;;;5052234;28;20437;-77
2022/08/01 01:32:33;;;;;;;1.77;0.52;;;;;;;;;;5051124;28;20049;-78
2022/08/01 01:35:05;;;;;;;0.68;0.57;;;;;;;;;;5050876;28;20171;-77
2022/08/01 01:37:33;;;;;;;1.10;0.43;;;;;;;;;;5052186;28;20083;-77
2022/08/01 01:40:02;;;;;;;0.90;0.60;;;;;;;;;;5050675;28;20076;-77
2022/08/01 01:42:30;;;;;;;0.70;0.70;;;;;;;;;;5051724;28;20080;-77
2022/08/01 01:44:57;;;;;;;1.42;0.47;;;;;;;;;;5051524;28;20053;-77
2022/08/01 01:47:24;;;;;;;1.45;0.50;;;;;;;;;;5051623;28;20084;-78
2022/08/01 01:49:50;;;;;;;;;;;;;;;;;;5052303;28;20087;-78
2022/08/01 01:52:18;;;;;;;0.95;0.60;;;;;;;;;;5051536;28;19963;-77
2022/08/01 01:54:47;;;;;;;0.93;0.55;;;;;;;;;;5052158;28;20077;-77
2022/08/01 01:57:15;;;;;;;1.17;0.52;;;;;;;;;;5051839;28;20080;-77
2022/08/01 01:59:42;;;;;;;1.95;0.70;;;;;;;;;;5051266;28;20508;-76
2022/08/01 02:02:09;;;;;;;0.95;0.43;;;;;;;;;;5051860;28;20091;-77
2022/08/01 02:04:37;;;;;;;0.60;0.60;;;;;;;;;;5051575;28;20415;-77
2022/08/01 02:07:05;;;;;;;0.75;0.50;;;;;;;;;;5051590;28;20076;-77
2022/08/01 02:09:33;;;;;;;1.13;0.70;;;;;;;;;;5050148;28;20052;-77
2022/08/01 02:12:01;;;;;;;0.60;0.43;;;;;;;;;;5051490;28;20092;-77
2022/08/01 02:14:37;;;;;;;2.70;0.68;;;;;;;;;;5051353;28;20546;-77
2022/08/01 02:17:04;;;;;;;1.83;0.60;;;;;;;;;;5052269;28;20443;-77
2022/08/01 02:19:30;;;;;;;2.22;0.65;;;;;;;;;;5051335;28;20063;-76
2022/08/01 02:22:07;;;;;;;0.50;0.50;;;;;;;;;;5051549;28;20041;-77
2022/08/01 02:24:43;;;;;;;0.50;0.50;;;;;;;;;;5051514;28;20432;-77
2022/08/01 02:27:12;;;;;;;1.60;1.05;;;;;;;;;;5051244;28;20083;-77
2022/08/01 02:29:43;;;;;;;0.98;0.80;;;;;;;;;;5051520;28;20495;-77
2022/08/01 02:32:14;;;;;;;2.60;0.70;;;;;;;;;;5051507;28;20045;-77
2022/08/01 02:34:41;;;;;;;1.52;0.70;;;;;;;;;;5051544;28;20080;-77
2022/08/01 02:37:09;;;;;;;0.75;0.70;;;;;;;;;;5051084;28;20572;-77
2022/08/01 02:39:36;;;;;;;2.17;0.70;;;;;;;;;;5050164;28;20083;-76
2022/08/01 02:42:04;;;;;;;3.83;0.60;;;;;;;;;;5051615;28;20040;-77
2022/08/01 02:44:35;;;;;;;1.77;0.65;;;;;;;;;;5054977;28;20053;-76
2022/08/01 02:47:02;;;;;;;1.25;0.60;;;;;;;;;;5054848;28;20084;-76
2022/08/01 02:49:33;;;;;;;1.02;0.60;;;;;;;;;;5054881;28;20508;-76
2022/08/01 02:52:03;;;;;;;1.45;0.63;;;;;;;;;;5055091;28;20053;-77
2022/08/01 02:54:31;;;;;;;0.65;0.60;;;;;;;;;;5055147;28;20045;-76
2022/08/01 02:56:58;;;;;;;1.35;0.50;;;;;;;;;;5055042;28;20080;-77
2022/08/01 02:59:26;;;;;;;0.82;0.63;;;;;;;;;;5054904;28;20464;-76
2022/08/01 03:01:56;;;;;;;1.73;0.70;;;;;;;;;;5054620;28;20497;-76
2022/08/01 03:04:24;;;;;;;1.05;0.60;;;;;;;;;;5054506;28;20049;-76
2022/08/01 03:06:51;;;;;;;2.28;0.40;;;;;;;;;;5054819;28;20083;-76
2022/08/01 03:09:18;;;;;;;0.85;0.55;;;;;;;;;;5054686;28;20107;-76
2022/08/01 03:11:46;;;;;;;2.92;0.50;;;;;;;;;;5054515;28;20087;-76
2022/08/01 03:14:13;;;;;;;1.33;0.80;;;;;;;;;;5054579;28;20085;-76
2022/08/01 03:16:41;;;;;;;1.05;0.68;;;;;;;;;;5054315;28;20461;-76
2022/08/01 03:19:09;;;;;;;1.77;0.63;;;;;;;;;;5054650;28;20459;-76
2022/08/01 03:21:38;;;;;;;1.98;0.90;;;;;;;;;;5054219;28;20127;-76
2022/08/01 03:24:05;;;;;;;2.30;0.77;;;;;;;;;;5048488;28;20049;-76
2022/08/01 03:26:33;;;;;;;2.38;1.17;;;;;;;;;;5053637;28;20485;-76
2022/08/01 03:29:06;;;;;;;0.82;0.80;;;;;;;;;;5054440;28;20396;-76
2022/08/01 03:31:36;;;;;;;1.05;0.93;;;;;;;;;;5054449;28;20065;-75
2022/08/01 03:34:02;;;;;;;1.50;0.85;;;;;;;;;;5054095;28;20481;-76
2022/08/01 03:36:32;;;;;;;1.52;0.88;;;;;;;;;;5054138;28;20078;-75
2022/08/01 03:39:00;;;;;;;1.70;0.80;;;;;;;;;;5054120;28;20091;-76
2022/08/01 03:41:28;;;;;;;1.10;0.70;;;;;;;;;;5054004;28;20076;-76
2022/08/01 03:44:01;;;;;;;1.13;0.60;;;;;;;;;;5054215;28;20049;-75
2022/08/01 03:46:48;;;;;;;2.47;0.88;;;;;;;;;;5053812;28;20412;-75
2022/08/01 03:49:17;;;;;;;1.08;0.63;;;;;;;;;;5053777;28;20077;-76
2022/08/01 03:51:45;;;;;;;1.00;0.80;;;;;;;;;;5053672;28;20483;-76
2022/08/01 03:54:11;;;;;;;;;;;;;;;;;;5053477;28;20072;-75
2022/08/01 03:56:38;;;;;;;1.05;0.90;;;;;;;;;;5053961;28;19966;-75
2022/08/01 03:59:05;;;;;;;2.17;1.00;;;;;;;;;;5053745;28;20149;-76
2022/08/01 04:01:33;;;;;;;2.17;0.93;;;;;;;;;;5053619;28;20103;-75
2022/08/01 04:04:00;;;;;;;1.25;0.85;;;;;;;;;;5053472;28;20515;-75
2022/08/01 04:06:26;;;;;;;2.17;0.90;;;;;;;;;;5053829;28;20110;-75
2022/08/01 04:08:57;;;;;;;1.05;0.90;;;;;;;;;;5053917;28;20076;-75
2022/08/01 04:11:24;;;;;;;1.33;0.98;;;;;;;;;;5053481;28;20501;-75
2022/08/01 04:13:52;;;;;;;1.10;0.90;;;;;;;;;;5053608;28;20107;-75
2022/08/01 04:16:20;;;;;;;1.15;0.82;;;;;;;;;;5053619;28;20075;-75
2022/08/01 04:18:47;;;;;;;1.48;0.95;;;;;;;;;;5053477;28;20087;-76
2022/08/01 04:21:17;;;;;;;2.47;1.00;;;;;;;;;;5053063;28;20081;-76
2022/08/01 04:23:44;;;;;;;3.05;1.15;;;;;;;;;;5053278;28;20049;-76
2022/08/01 04:26:12;;;;;;;1.90;1.13;;;;;;;;;;5053361;28;20079;-76
2022/08/01 04:28:39;;;;;;;2.10;1.10;;;;;;;;;;5053382;28;20468;-76
2022/08/01 04:31:09;;;;;;;1.23;1.00;;;;;;;;;;5053074;28;20087;-76
2022/08/01 04:33:38;;;;;;;1.60;1.10;;;;;;;;;;5051762;28;20060;-76
2022/08/01 04:36:06;;;;;;;2.60;0.95;;;;;;;;;;5051620;28;20049;-77
2022/08/01 04:38:33;;;;;;;2.60;1.13;;;;;;;;;;5051977;28;20072;-76
2022/08/01 04:41:01;;;;;;;;;;;;;;;;;;5053286;28;20420;-76
2022/08/01 04:43:34;;;;;;;2.70;1.17;;;;;;;;;;5053148;28;19970;-76
2022/08/01 04:46:03;;;;;;;1.00;0.90;;;;;;;;;;5052782;28;20072;-76
2022/08/01 04:48:31;;;;;;;2.85;1.20;;;;;;;;;;5052496;28;20088;-77
2022/08/01 04:50:57;;;;;;;1.90;1.08;;;;;;;;;;5052807;28;20449;-77
2022/08/01 04:53:25;;;;;;;2.33;0.90;;;;;;;;;;5052777;28;20053;-76
2022/08/01 04:55:52;;;;;;;3.13;0.95;;;;;;;;;;5051382;28;20106;-77
2022/08/01 04:58:18;;;;;;;2.15;1.45;;;;;;;;;;5052422;28;20087;-77
2022/08/01 05:00:45;;;;;;;3.50;1.10;;;;;;;;;;5052619;28;20447;-76
2022/08/01 05:03:12;;;;;;;1.63;0.80;;;;;;;;;;5052323;28;20057;-76
2022/08/01 05:05:38;;;;;;;2.38;0.88;;;;;;;;;;5052381;28;20053;-76
2022/08/01 05:08:05;;;;;;;2.55;1.10;;;;;;;;;;5052245;28;20091;-76
2022/08/01 05:10:32;;;;;;;1.75;1.10;;;;;;;;;;5052300;28;20057;-76
2022/08/01 05:12:59;;;;;;;1.77;1.48;;;;;;;;;;5052216;28;20087;-76
2022/08/01 05:15:26;;;;;;;1.58;1.05;;;;;;;;;;5052387;28;20072;-76
2022/08/01 05:17:53;;;;;;;1.60;1.10;;;;;;;;;;5052418;28;20045;-76
2022/08/01 05:20:20;;;;;;;2.08;0.85;;;;;;;;;;5052398;28;20088;-76
2022/08/01 05:22:46;;;;;;;1.70;1.00;;;;;;;;;;5052274;28;20087;-76
2022/08/01 05:25:13;;;;;;;2.15;0.85;;;;;;;;;;5052058;28;20098;-76
2022/08/01 05:27:45;;;;;;;2.03;1.00;;;;;;;;;;5051985;28;20107;-76
2022/08/01 05:30:14;;;;;;;1.52;1.10;;;;;;;;;;5051801;28;20052;-75
2022/08/01 05:32:40;;;;;;;3.95;0.98;;;;;;;;;;5051826;28;20095;-76
2022/08/01 05:35:07;;;;;;;0.95;0.70;;;;;;;;;;5052149;28;20128;-76
2022/08/01 05:37:34;;;;;;;3.40;0.70;;;;;;;;;;5051762;28;20516;-76
2022/08/01 05:40:01;;;;;;;1.38;1.05;;;;;;;;;;5051759;28;20087;-75
2022/08/01 05:42:27;;;;;;;0.68;0.68;;;;;;;;;;5051654;28;20132;-75
2022/08/01 05:44:53;;;;;;;1.42;0.80;;;;;;;;;;5051704;28;20447;-75
2022/08/01 05:47:20;;;;;;;1.60;1.00;;;;;;;;;;5052152;28;20099;-75
2022/08/01 05:49:46;;;;;;;0.88;0.80;;;;;;;;;;5051828;28;20064;-75
2022/08/01 05:52:13;;;;;;;1.98;0.82;;;;;;;;;;5051614;28;20516;-75
2022/08/01 05:54:40;;;;;;;2.17;1.17;;;;;;;;;;5051630;28;20122;-75
2022/08/01 05:57:07;;;;;;;2.03;1.00;;;;;;;;;;5051888;28;20076;-75
2022/08/01 05:59:33;;;;;;;1.48;1.08;;;;;;;;;;5050205;28;20088;-75
2022/08/01 06:02:00;;;;;;;4.68;1.20;;;;;;;;;;5051448;28;20536;-75
2022/08/01 06:04:26;;;;;;;1.65;0.82;;;;;;;;;;5051532;28;20085;-75
2022/08/01 06:06:53;;;;;;;2.78;1.17;;;;;;;;;;5051687;28;20045;-75
2022/08/01 06:09:19;;;;;;;1.60;0.80;;;;;;;;;;5051447;28;20060;-75
2022/08/01 06:11:45;;;;;;;1.40;0.93;;;;;;;;;;5051269;28;20083;-75
2022/08/01 06:14:12;;;;;;;1.67;1.02;;;;;;;;;;5051689;28;20428;-75
2022/08/01 06:16:38;;;;;;;1.17;0.90;;;;;;;;;;5050202;28;20141;-75
2022/08/01 06:19:05;;;;;;;2.20;0.70;;;;;;;;;;5055472;28;20044;-74
2022/08/01 06:21:31;;;;;;;2.20;0.93;;;;;;;;;;5055375;28;20077;-74
2022/08/01 06:23:58;;;;;;;2.10;1.02;;;;;;;;;;5055403;28;20076;-75
2022/08/01 06:26:24;;;;;;;1.15;0.90;;;;;;;;;;5055389;28;20080;-77
2022/08/01 06:28:51;;;;;;;1.50;0.80;;;;;;;;;;5055508;28;20045;-74
2022/08/01 06:31:17;;;;;;;2.47;0.77;;;;;;;;;;5055541;28;20159;-75
2022/08/01 06:33:43;;;;;;;5.03;1.17;;;;;;;;;;5055224;28;20516;-75
2022/08/01 06:36:10;;;;;;;2.15;0.95;;;;;;;;;;5055173;28;20084;-75
2022/08/01 06:38:37;;;;;;;1.33;0.90;;;;;;;;;;5055166;28;20513;-75
2022/08/01 06:41:03;;;;;;;1.60;0.88;;;;;;;;;;5054939;28;20104;-75
2022/08/01 06:43:31;;;;;;;1.40;0.70;;;;;;;;;;5055288;28;20484;-75
2022/08/01 06:45:57;;;;;;;0.98;0.88;;;;;;;;;;5054041;28;20045;-75
2022/08/01 06:48:23;;;;;;;3.22;1.05;;;;;;;;;;5054990;28;20056;-75
2022/08/01 06:51:07;;;;;;;2.40;0.82;;;;;;;;;;5055247;28;20128;-75
2022/08/01 06:53:35;;;;;;;1.75;0.80;;;;;;;;;;5054923;28;20056;-76
2022/08/01 06:56:02;;;;;;;1.77;0.90;;;;;;;;;;5054913;28;20080;-75
2022/08/01 06:58:28;;;;;;;1.25;0.85;;;;;;;;;;5055068;28;20073;-75
2022/08/01 07:00:57;;;;;;;1.77;0.80;;;;;;;;;;5054990;28;20132;-76
2022/08/01 07:03:25;;;;;;;4.00;0.77;;;;;;;;;;5054665;28;20520;-75
2022/08/01 07:05:53;;;;;;;1.27;0.60;;;;;;;;;;5054887;28;20049;-76
2022/08/01 07:08:20;;;;;;;3.70;0.57;;;;;;;;;;5054981;28;20442;-76
2022/08/01 07:10:46;;;;;;;;;;;;;;;;;;5055192;28;20080;-76
2022/08/01 07:13:14;;;;;;;2.40;0.67;;;;;;;;;;5054807;28;19929;-75
2022/08/01 07:15:41;;;;;;;1.50;0.80;;;;;;;;;;5053529;28;20084;-75
2022/08/01 07:18:07;;;;;;;0.73;0.60;;;;;;;;;;5054495;28;20107;-75
2022/08/01 07:20:34;;;;;;;2.28;0.90;;;;;;;;;;5054665;28;20325;-76
2022/08/01 07:23:16;;;;;;;1.40;0.47;;;;;;;;;;5054304;28;20156;-75
2022/08/01 07:25:48;;;;;;;2.28;0.82;;;;;;;;;;5054537;28;20045;-75
2022/08/01 07:28:18;;;;;;;2.67;0.80;;;;;;;;;;5053811;28;20056;-76
2022/08/01 07:30:45;;;;;;;2.23;0.60;;;;;;;;;;5053640;28;20076;-76
2022/08/01 07:33:11;;;;;;;2.20;0.75;;;;;;;;;;5054056;28;20555;-76
2022/08/01 07:35:39;;;;;;;1.70;0.60;;;;;;;;;;5054172;28;20084;-76
2022/08/01 07:38:06;;;;;;;3.25;0.90;;;;;;;;;;5054344;28;20122;-76
2022/08/01 07:40:38;;;;;;;1.98;0.82;;;;;;;;;;5054311;28;20049;-76
2022/08/01 07:43:04;;;;;;;1.90;0.60;;;;;;;;;;5054445;28;20094;-75
2022/08/01 07:45:31;;;;;;;2.03;1.00;;;;;;;;;;5053935;28;20053;-75
2022/08/01 07:48:01;;;;;;;1.20;0.77;;;;;;;;;;5053828;28;20052;-76
2022/08/01 07:50:33;;;;;;;3.75;0.80;;;;;;;;;;5054263;28;20052;-76
2022/08/01 07:53:00;;;;;;;2.20;0.57;;;;;;;;;;5053708;28;20076;-75
2022/08/01 07:55:26;;;;;;;0.88;0.55;;;;;;;;;;5053827;28;20132;-76
2022/08/01 07:57:53;;;;;;;2.27;0.77;;;;;;;;;;5053917;28;20053;-76
2022/08/01 08:00:19;;;;;;;1.17;0.70;;;;;;;;;;5053576;28;20057;-77
2022/08/01 08:02:46;;;;;;;2.27;0.83;;;;;;;;;;5053605;28;20048;-76
2022/08/01 08:05:13;;;;;;;1.57;0.80;;;;;;;;;;5053783;28;20432;-76
2022/08/01 08:07:39;;;;;;;1.58;0.80;;;;;;;;;;5053807;28;20049;-76
2022/08/01 08:10:06;;;;;;;1.57;0.67;;;;;;;;;;5053694;28;20045;-76
2022/08/01 08:12:32;;;;;;;1.27;0.65;;;;;;;;;;5053770;28;20049;-76
2022/08/01 08:15:00;;;;;;;0.82;0.50;;;;;;;;;;5053358;28;20487;-76
2022/08/01 08:17:27;;;;;;;1.17;0.60;;;;;;;;;;5053585;28;20067;-76
2022/08/01 08:19:53;;;;;;;;;;;;;;;;;;5053749;28;20052;-76
2022/08/01 08:22:20;;;;;;;1.17;0.50;;;;;;;;;;5053214;28;20344;-76
2022/08/01 08:24:46;;;;;;;1.02;0.60;;;;;;;;;;5053422;28;20084;-77
2022/08/01 08:27:13;;;;;;;1.88;0.50;;;;;;;;;;5052980;28;20452;-76
2022/08/01 08:29:39;;;;;;;1.85;0.60;;;;;;;;;;5053047;28;20128;-76
2022/08/01 08:32:06;;;;;;;2.20;0.47;;;;;;;;;;5053129;28;20049;-76
2022/08/01 08:34:32;;;;;;;0.98;0.40;;;;;;;;;;5053258;28;20045;-76
2022/08/01 08:36:59;;;;;;;1.02;0.60;;;;;;;;;;5053297;28;20053;-76
2022/08/01 08:39:26;;;;;;;1.70;0.30;;;;;;;;;;5053173;28;20099;-76
2022/08/01 08:41:52;;;;;;;1.13;0.40;;;;;;;;;;5052771;28;20132;-76
2022/08/01 08:44:22;;;;;;;1.42;0.60;;;;;;;;;;5053027;28;20072;-76
2022/08/01 08:46:50;;;;;;;1.65;0.50;;;;;;;;;;5052556;28;20053;-75
2022/08/01 08:49:24;;;;;;;0.77;0.30;;;;;;;;;;5053045;28;20045;-75
2022/08/01 08:51:51;;;;;;;1.00;0.30;;;;;;;;;;5052621;28;20048;-75
2022/08/01 08:54:20;;;;;;;0.35;0.20;;;;;;;;;;5052916;28;20081;-76
2022/08/01 08:56:47;;;;;;;0.30;0.20;;;;;;;;;;5052853;28;20052;-75
2022/08/01 08:59:13;;;;;;;0.85;0.30;;;;;;;;;;5052453;28;20072;-76
2022/08/01 09:01:40;;;;;;;0.73;0.25;;;;;;;;;;5052299;28;20398;-76
2022/08/01 09:04:07;;;;;;;1.45;0.43;;;;;;;;;;5052653;28;20136;-75
2022/08/01 09:06:33;;;;;;;;;;;;;;;;;;5053316;28;20478;-75
2022/08/01 09:09:00;;;;;;;3.15;0.65;;;;;;;;;;5052607;28;19920;-75
2022/08/01 09:11:26;;;;;;;0.95;0.30;;;;;;;;;;5052561;28;20049;-75
2022/08/01 09:14:02;;;;;;;1.60;0.40;;;;;;;;;;5052592;28;20468;-75
2022/08/01 09:16:30;;;;;;;0.90;0.30;;;;;;;;;;5052467;28;20076;-75
2022/08/01 09:19:10;;;;;;;1.05;0.63;;;;;;;;;;5052242;28;20438;-75
2022/08/01 09:21:58;;;;;;;1.10;0.50;;;;;;;;;;5051983;28;20049;-75
2022/08/01 09:24:26;;;;;;;1.35;0.47;;;;;;;;;;5052042;28;20536;-75
2022/08/01 09:26:56;;;;;;;0.32;0.32;;;;;;;;;;5052346;28;20077;-75
2022/08/01 09:29:25;;;;;;;0.63;0.40;;;;;;;;;;5052018;28;20080;-75
2022/08/01 09:32:05;;;;;;;1.10;0.50;;;;;;;;;;5052223;28;20194;-75
2022/08/01 09:34:32;;;;;;;1.17;0.30;;;;;;;;;;5050942;28;20468;-75
2022/08/01 09:37:01;;;;;;;0.77;0.40;;;;;;;;;;5051942;28;20527;-75
2022/08/01 09:39:39;;;;;;;0.40;0.40;;;;;;;;;;5052156;28;20069;-76
2022/08/01 09:42:20;;;;;;;0.70;0.40;;;;;;;;;;5052052;28;20049;-76
2022/08/01 09:44:54;;;;;;;1.17;0.40;;;;;;;;;;5052158;28;20045;-76
2022/08/01 09:47:21;;;;;;;0.93;0.40;;;;;;;;;;5051599;28;20496;-76
2022/08/01 09:49:56;;;;;;;1.23;0.30;;;;;;;;;;5051629;28;20503;-76
2022/08/01 09:52:26;;;;;;;1.23;0.50;;;;;;;;;;5050985;28;20057;-76
2022/08/01 09:55:01;;;;;;;0.80;0.50;;;;;;;;;;5051646;28;20124;-76
2022/08/01 09:57:29;;;;;;;1.33;0.40;;;;;;;;;;5051859;28;20060;-75
2022/08/01 09:59:57;;;;;;;0.80;0.40;;;;;;;;;;5051685;28;20041;-76
2022/08/01 10:02:31;;;;;;;3.22;0.50;;;;;;;;;;5051646;28;20094;-76
2022/08/01 10:04:59;;;;;;;1.42;0.30;;;;;;;;;;5051698;28;20373;-76
2022/08/01 10:07:34;;;;;;;0.20;0.20;;;;;;;;;;5051785;28;20081;-76
2022/08/01 10:10:13;;;;;;;0.70;0.60;;;;;;;;;;5051854;28;20639;-76
2022/08/01 10:12:41;;;;;;;0.60;0.60;;;;;;;;;;5051764;28;20057;-76
2022/08/01 10:15:11;;;;;;;0.90;0.47;;;;;;;;;;5051496;28;20127;-75
2022/08/01 10:17:42;;;;;;;0.93;0.57;;;;;;;;;;5051364;28;20099;-76
2022/08/01 10:20:19;;;;;;;2.38;0.60;;;;;;;;;;5051311;28;20060;-76
2022/08/01 10:22:58;;;;;;;0.45;0.40;;;;;;;;;;5051734;28;20056;-75
2022/08/01 10:25:27;;;;;;;1.42;0.60;;;;;;;;;;5051327;28;20048;-76
2022/08/01 10:28:19;;;;;;;0.85;0.65;;;;;;;;;;5050211;28;20045;-75
2022/08/01 10:30:49;;;;;;;0.40;0.40;;;;;;;;;;5051341;28;20124;-76
2022/08/01 10:33:21;;;;;;;1.20;0.50;;;;;;;;;;5051485;28;20459;-76
2022/08/01 10:36:08;;;;;;;1.67;0.63;;;;;;;;;;5051379;28;20049;-75
2022/08/01 10:38:35;;;;;;;1.13;0.60;;;;;;;;;;5051188;28;20088;-75
2022/08/01 10:41:03;;;;;;;1.40;1.00;;;;;;;;;;5051413;28;20061;-75
2022/08/01 10:43:32;;;;;;;1.33;0.80;;;;;;;;;;5051097;28;20041;-75
2022/08/01 10:46:01;;;;;;;1.63;0.75;;;;;;;;;;5051392;28;20455;-75
2022/08/01 10:48:33;;;;;;;0.98;0.70;;;;;;;;;;5050973;28;20060;-75
2022/08/01 10:51:03;;;;;;;1.55;0.95;;;;;;;;;;5036955;28;20494;-76
2022/08/01 10:53:29;;;;;;;2.35;0.68;;;;;;;;;;5051010;28;20049;-75
2022/08/01 10:56:10;;;;;;;0.70;0.47;;;;;;;;;;5051009;28;20056;-75
2022/08/01 10:58:42;;;;;;;0.73;0.47;;;;;;;;;;5051338;28;20107;-75
2022/08/01 11:01:23;;;;;;;1.15;0.70;;;;;;;;;;5051257;28;20132;-75
2022/08/01 11:04:00;;;;;;;1.13;0.60;;;;;;;;;;5052619;28;20110;-75
2022/08/01 11:06:27;;;;;;;;;;;;;;;;;;5055388;28;20076;-76
2022/08/01 11:08:54;;;;;;;1.70;0.50;;;;;;;;;;5055008;28;19967;-75
2022/08/01 11:11:21;;;;;;;1.05;0.65;;;;;;;;;;5054950;28;20446;-75
2022/08/01 11:13:57;;;;;;;0.45;0.30;;;;;;;;;;5027453;28;20041;-74
2022/08/01 11:16:25;;;;;;;0.63;0.38;;;;;;;;;;5054851;28;20136;-75
2022/08/01 11:18:52;;;;;;;1.20;0.40;;;;;;;;;;5054762;28;20080;-75
2022/08/01 11:21:19;;;;;;;0.47;0.40;;;;;;;;;;5054729;28;20049;-74
2022/08/01 11:24:06;;;;;;;0.47;0.30;;;;;;;;;;5053193;28;20041;-75
2022/08/01 11:26:35;;;;;;;0.47;0.35;;;;;;;;;;5054604;28;20057;-75
2022/08/01 11:29:12;;;;;;;1.15;0.32;;;;;;;;;;5054253;28;20080;-75
2022/08/01 11:31:47;;;;;;;0.40;0.40;;;;;;;;;;5054255;28;20557;-73
2022/08/01 11:34:13;;;;;;;0.90;0.38;;;;;;;;;;5054110;28;20417;-72
2022/08/01 11:36:41;;;;;;;1.02;0.30;;;;;;;;;;5054139;28;20564;-72
2022/08/01 11:39:24;;;;;;;0.70;0.30;;;;;;;;;;5054297;28;20386;-71
2022/08/01 11:41:52;;;;;;;1.35;0.40;;;;;;;;;;5054330;28;20139;-72
2022/08/01 11:44:22;;;;;;;0.22;0.22;;;;;;;;;;5053890;28;20441;-72
2022/08/01 11:47:02;;;;;;;0.30;0.20;;;;;;;;;;5053982;28;20485;-73
2022/08/01 11:49:40;;;;;;;2.10;0.30;;;;;;;;;;5053903;28;20064;-75
2022/08/01 11:52:08;;;;;;;0.30;0.30;;;;;;;;;;5054166;28;20064;-74
2022/08/01 11:54:37;;;;;;;0.75;0.32;;;;;;;;;;5054028;28;20123;-74
2022/08/01 11:57:08;;;;;;;0.40;0.28;;;;;;;;;;5054107;28;20041;-75
2022/08/01 11:59:39;;;;;;;1.63;0.20;;;;;;;;;;5053856;28;20067;-74
2022/08/01 12:02:17;;;;;;;0.43;0.20;;;;;;;;;;5053935;28;20041;-75
2022/08/01 12:05:06;;;;;;;0.28;0.20;;;;;;;;;;5053688;28;20427;-74
2022/08/01 12:07:37;;;;;;;1.75;0.30;;;;;;;;;;5053640;28;20052;-74
2022/08/01 12:10:07;;;;;;;0.80;0.60;;;;;;;;;;5053478;28;20460;-75
2022/08/01 12:12:34;;;;;;;1.05;0.30;;;;;;;;;;5052552;28;20049;-75
2022/08/01 12:15:02;;;;;;;0.38;0.30;;;;;;;;;;5052869;28;20049;-75
2022/08/01 12:17:30;;;;;;;1.48;0.30;;;;;;;;;;5053341;28;20083;-75
2022/08/01 12:19:57;;;;;;;0.20;0.20;;;;;;;;;;5053526;28;20073;-75
2022/08/01 12:22:24;;;;;;;1.58;0.40;;;;;;;;;;5053214;28;20166;-75
2022/08/01 12:24:51;;;;;;;0.40;0.30;;;;;;;;;;5053519;28;20131;-75
2022/08/01 12:27:28;;;;;;;0.47;0.30;;;;;;;;;;5054481;28;20127;-75
2022/08/01 12:29:55;;;;;;;0.43;0.30;;;;;;;;;;5053078;28;20076;-75
2022/08/01 12:32:23;;;;;;;0.38;0.35;;;;;;;;;;5053263;28;20048;-75
2022/08/01 12:35:11;;;;;;;0.30;0.30;;;;;;;;;;5053072;28;20049;-75
2022/08/01 12:37:46;;;;;;;1.15;0.30;;;;;;;;;;5052979;28;20041;-74
2022/08/01 12:40:17;;;;;;;1.63;0.40;;;;;;;;;;5053201;28;20094;-75
2022/08/01 12:42:46;;;;;;;0.28;0.20;;;;;;;;;;5053063;28;20087;-74
2022/08/01 12:45:15;;;;;;;0.57;0.20;;;;;;;;;;5053147;28;20083;-75
2022/08/01 12:47:42;;;;;;;0.35;0.20;;;;;;;;;;5052303;28;20096;-74
2022/08/01 12:50:13;;;;;;;0.52;0.20;;;;;;;;;;5053055;28;20124;-74
2022/08/01 12:52:40;;;;;;;0.20;0.20;;;;;;;;;;5052660;28;20077;-75
2022/08/01 12:55:10;;;;;;;0.80;0.25;;;;;;;;;;5052577;28;20524;-75
2022/08/01 12:57:38;;;;;;;0.52;0.40;;;;;;;;;;5039593;28;20083;-75
2022/08/01 13:00:09;;;;;;;0.77;0.40;;;;;;;;;;5051722;28;20045;-74
2022/08/01 13:02:37;;;;;;;1.48;0.40;;;;;;;;;;5052444;28;20049;-74
2022/08/01 13:05:03;;;;;;;0.55;0.40;;;;;;;;;;5052713;28;20069;-74
2022/08/01 13:07:36;;;;;;;0.57;0.50;;;;;;;;;;5052748;28;20123;-74
2022/08/01 13:10:11;;;;;;;0.40;0.40;;;;;;;;;;5052323;28;20041;-74
2022/08/01 13:12:38;;;;;;;0.80;0.50;;;;;;;;;;5052290;28;20068;-74
2022/08/01 13:15:18;;;;;;;0.45;0.40;;;;;;;;;;5052216;28;20186;-74
2022/08/01 13:17:44;;;;;;;1.52;0.50;;;;;;;;;;5052543;28;20044;-74
2022/08/01 13:20:20;;;;;;;0.47;0.30;;;;;;;;;;5052414;28;20091;-74
2022/08/01 13:22:47;;;;;;;1.13;0.50;;;;;;;;;;5052352;28;20170;-74
2022/08/01 13:25:14;;;;;;;0.75;0.40;;;;;;;;;;5051974;28;20085;-74
2022/08/01 13:27:46;;;;;;;0.55;0.40;;;;;;;;;;5052362;28;20053;-74
2022/08/01 13:30:19;;;;;;;1.33;0.35;;;;;;;;;;5052123;28;20048;-74
2022/08/01 13:32:58;;;;;;;0.60;0.50;;;;;;;;;;5051922;28;20128;-74
2022/08/01 13:35:25;;;;;;;1.63;0.60;;;;;;;;;;5052779;28;20100;-74
2022/08/01 13:37:52;;;;;;;1.60;0.57;;;;;;;;;;5052093;28;20041;-73
2022/08/01 13:40:25;;;;;;;1.27;0.40;;;;;;;;;;5051824;28;20528;-72
2022/08/01 13:42:53;;;;;;;0.50;0.50;;;;;;;;;;5052195;28;20041;-72
2022/08/01 13:45:19;;;;;;;1.38;0.50;;;;;;;;;;5052000;28;20460;-72
2022/08/01 13:47:47;;;;;;;0.82;0.52;;;;;;;;;;5051449;28;20060;-72
2022/08/01 13:50:34;;;;;;;0.75;0.50;;;;;;;;;;5051872;28;20049;-72
2022/08/01 13:53:00;;;;;;;0.75;0.50;;;;;;;;;;5051571;28;20112;-72
2022/08/01 13:55:27;;;;;;;1.52;0.60;;;;;;;;;;5051819;28;20081;-72
2022/08/01 13:58:00;;;;;;;0.90;0.40;;;;;;;;;;5050519;28;20076;-72
2022/08/01 14:00:26;;;;;;;0.40;0.30;;;;;;;;;;5051799;28;20091;-72
2022/08/01 14:02:56;;;;;;;2.25;0.70;;;;;;;;;;5051383;28;20052;-72
2022/08/01 14:05:22;;;;;;;0.75;0.30;;;;;;;;;;5051463;28;20500;-72
2022/08/01 14:07:49;;;;;;;1.20;0.40;;;;;;;;;;5051576;28;20044;-71
2022/08/01 14:10:21;;;;;;;1.02;0.30;;;;;;;;;;5037627;28;20045;-71
2022/08/01 14:12:49;;;;;;;0.32;0.30;;;;;;;;;;5051692;28;20099;-72
2022/08/01 14:15:16;;;;;;;1.33;0.40;;;;;;;;;;5051231;28;20083;-72
2022/08/01 14:18:02;;;;;;;1.10;0.40;;;;;;;;;;5051520;28;20052;-72
2022/08/01 14:20:31;;;;;;;0.20;0.20;;;;;;;;;;5051328;28;20531;-72
2022/08/01 14:22:57;;;;;;;0.35;0.30;;;;;;;;;;5051558;28;20100;-72
2022/08/01 14:25:24;;;;;;;0.20;0.13;;;;;;;;;;5051167;28;20132;-71
2022/08/01 14:28:10;;;;;;;0.20;0.20;;;;;;;;;;5051186;28;20045;-71
2022/08/01 14:30:36;;;;;;;1.10;0.30;;;;;;;;;;5051105;28;20128;-72
2022/08/01 14:33:03;;;;;;;0.73;0.20;;;;;;;;;;5051176;28;20079;-72
2022/08/01 14:35:29;;;;;;;0.82;0.20;;;;;;;;;;5051224;28;20484;-71
2022/08/01 14:38:16;;;;;;;0.60;0.10;;;;;;;;;;5051879;28;20594;-71
2022/08/01 14:40:54;;;;;;;0.38;0.20;;;;;;;;;;5055326;28;20111;-71
2022/08/01 14:43:21;;;;;;;0.10;0.10;;;;;;;;;;5055362;28;20084;-72
2022/08/01 14:45:57;;;;;;;1.08;0.25;;;;;;;;;;5055049;28;20231;-72
2022/08/01 14:48:23;;;;;;;0.20;0.20;;;;;;;;;;5055087;28;20087;-72
2022/08/01 14:50:50;;;;;;;0.20;0.20;;;;;;;;;;5054987;28;20107;-72
2022/08/01 14:53:17;;;;;;;0.45;0.30;;;;;;;;;;5054908;28;20056;-72
2022/08/01 14:55:43;;;;;;;1.05;0.20;;;;;;;;;;5054950;28;20136;-72
2022/08/01 14:58:10;;;;;;;0.75;0.10;;;;;;;;;;5055098;28;20080;-72
2022/08/01 15:00:36;;;;;;;0.55;0.10;;;;;;;;;;5055157;28;20091;-71